createdAt,value
2023-02-03T08:32:27.307Z,36.78
2023-02-03T08:34:54.721Z,44.13
2023-02-03T08:37:24.739Z,49.17
2023-02-03T08:39:52.738Z,54.13
2023-02-03T08:42:19.987Z,50.10
2023-02-03T08:44:49.272Z,50.45
2023-02-03T08:47:17.128Z,49.95
2023-02-03T08:49:44.190Z,52.40
2023-02-03T08:52:12.961Z,53.17
2023-02-03T08:54:40.395Z,51.63
2023-02-03T08:57:08.241Z,50.17
2023-02-03T08:59:37.621Z,50.67
2023-02-03T09:02:07.080Z,49.63
2023-02-03T09:04:34.462Z,46.03
2023-02-03T09:07:03.485Z,43.97
2023-02-03T09:09:31.096Z,43.40
2023-02-03T09:12:02.247Z,41.92
2023-02-03T09:14:33.625Z,43.38
2023-02-03T09:17:02.044Z,42.17
2023-02-03T09:19:29.291Z,43.25
2023-02-03T09:21:57.310Z,41.88
2023-02-03T09:59:42.721Z,64.35
2023-02-03T10:02:18.984Z,63.25
2023-02-03T10:05:10.857Z,64.93
2023-02-03T10:08:07.698Z,64.10
2023-02-03T10:10:41.360Z,69.40
2023-02-03T10:13:33.223Z,69.13
2023-02-03T10:16:38.725Z,71.05
2023-02-03T10:19:13.027Z,72.78
2023-02-03T10:21:55.259Z,72.35
2023-02-03T10:24:34.953Z,74.95
2023-02-03T10:27:01.946Z,68.47
2023-02-03T10:29:37.692Z,68.40
2023-02-03T10:32:10.184Z,68.78
2023-02-03T10:34:37.900Z,65.97
2023-02-03T10:37:24.203Z,68.72
2023-02-03T10:39:53.003Z,68.78
2023-02-03T10:42:22.239Z,67.45
2023-02-03T10:44:59.871Z,69.70
2023-02-03T10:47:34.906Z,71.45
2023-02-03T10:50:15.199Z,67.13
2023-02-03T10:52:42.251Z,75.85
2023-02-03T10:55:31.198Z,76.15
2023-02-03T10:58:05.859Z,81.65
2023-02-03T11:00:34.666Z,80.43
2023-02-03T11:03:07.451Z,80.45
2023-02-03T11:05:35.062Z,79.38
2023-02-03T11:08:02.284Z,82.53
2023-02-03T14:28:57.735Z,94.90
2023-02-03T14:36:34.987Z,81.47
2023-02-03T14:39:16.765Z,92.10
2023-02-03T14:42:28.000Z,92.80
2023-02-03T14:55:49.835Z,92.53
2023-02-03T15:00:49.556Z,94.65
2023-02-03T15:03:22.574Z,95.20
2023-02-03T15:05:55.869Z,91.75
2023-02-03T15:08:44.400Z,94.78
2023-02-03T15:11:33.795Z,89.53
2023-02-03T15:14:33.128Z,92.65
2023-02-03T15:17:30.571Z,97.47
2023-02-03T15:19:57.477Z,96.13
2023-02-03T15:22:29.605Z,100.63
2023-02-03T15:25:04.148Z,104.03
2023-02-03T15:27:32.568Z,97.50
2023-02-03T15:30:14.340Z,96.30
2023-02-03T15:33:13.092Z,97.00
2023-02-03T15:35:41.875Z,95.55
2023-02-03T15:38:15.820Z,97.40
2023-02-03T15:40:50.957Z,97.35
2023-02-03T15:43:24.435Z,97.53
2023-02-03T15:46:04.860Z,97.60
2023-02-03T15:48:43.453Z,96.60
2023-02-03T15:51:16.505Z,95.88
2023-02-03T15:56:35.374Z,96.55
2023-02-03T16:01:29.604Z,96.65
2023-02-03T16:03:59.055Z,95.45
2023-02-03T16:09:07.258Z,94.97
2023-02-03T16:11:36.892Z,92.65
2023-02-03T16:14:10.829Z,94.38
2023-02-03T16:16:39.904Z,97.47
2023-02-03T16:19:20.487Z,93.38
2023-02-03T16:21:50.419Z,91.95
2023-02-03T16:24:32.329Z,92.47
2023-02-03T16:27:27.308Z,92.57
2023-02-03T16:30:33.292Z,93.55
2023-02-03T16:33:27.739Z,90.55
2023-02-03T16:36:14.854Z,93.70
2023-02-03T16:39:08.435Z,90.97
2023-02-03T16:41:55.431Z,92.15
2023-02-03T16:44:41.051Z,88.63
2023-02-03T16:47:47.135Z,90.97
2023-02-03T16:50:39.575Z,92.55
2023-02-03T16:53:12.639Z,93.47
2023-02-03T16:55:40.113Z,95.17
2023-02-03T16:58:07.057Z,94.05
2023-02-03T17:00:34.189Z,98.85
2023-02-03T17:03:04.436Z,94.78
2023-02-03T17:05:31.633Z,94.30
2023-02-03T17:07:58.832Z,99.60
2023-02-03T17:10:26.469Z,102.25
2023-02-03T17:12:53.423Z,101.15
2023-02-03T17:17:47.237Z,99.70
2023-02-03T17:22:40.983Z,99.75
2023-02-03T17:25:08.196Z,101.03
2023-02-03T17:30:02.032Z,99.13
2023-02-03T17:32:28.976Z,97.25
2023-02-03T17:34:55.970Z,96.95
2023-02-03T17:37:22.853Z,96.25
2023-02-03T17:53:32.681Z,98.07
2023-02-03T17:56:15.919Z,101.95
2023-02-03T17:58:43.696Z,102.15
2023-02-03T18:08:41.075Z,106.55
2023-02-03T18:11:08.525Z,107.50
2023-02-03T18:13:39.918Z,102.22
2023-02-03T18:16:09.489Z,102.03
2023-02-03T18:18:38.773Z,99.78
2023-02-03T18:21:07.037Z,103.40
2023-02-03T18:23:34.158Z,101.50
2023-02-03T18:26:01.139Z,101.70
2023-02-03T18:28:28.430Z,101.25
2023-02-03T18:31:11.242Z,99.70
2023-02-03T18:33:38.467Z,99.60
2023-02-03T18:36:06.485Z,101.13
2023-02-03T18:38:35.138Z,99.55
2023-02-03T18:46:10.806Z,91.38
2023-02-03T18:48:38.028Z,89.50
2023-02-03T18:51:09.572Z,93.50
2023-02-03T18:53:36.706Z,90.38
2023-02-03T18:56:07.335Z,88.75
2023-02-03T18:58:34.589Z,93.45
2023-02-03T19:01:01.531Z,89.40
2023-02-03T19:03:28.555Z,86.07
2023-02-03T19:05:55.621Z,89.05
2023-02-03T19:08:22.601Z,83.30
2023-02-03T19:10:53.894Z,83.22
2023-02-03T19:13:21.292Z,81.80
2023-02-03T19:15:49.461Z,90.47
2023-02-03T19:20:44.200Z,85.40
2023-02-03T19:23:14.466Z,79.30
2023-02-03T19:25:41.462Z,78.78
2023-02-03T19:28:14.324Z,80.88
2023-02-03T19:30:45.016Z,71.95
2023-02-03T19:33:12.960Z,69.18
2023-02-03T19:35:41.441Z,69.72
2023-02-03T19:38:08.745Z,71.03
2023-02-03T19:40:35.738Z,73.18
2023-02-03T19:43:04.034Z,80.50
2023-02-03T19:45:31.049Z,75.22
2023-02-03T19:47:58.276Z,71.78
2023-02-03T19:50:25.425Z,68.38
2023-02-03T19:52:52.861Z,69.28
2023-02-03T19:55:19.818Z,68.45
2023-02-03T19:57:47.562Z,65.03
2023-02-03T20:00:15.085Z,56.33
2023-02-03T20:02:43.832Z,52.95
2023-02-03T20:05:11.895Z,49.42
2023-02-03T20:07:39.017Z,48.05
2023-02-03T20:10:07.315Z,47.03
2023-02-03T20:12:34.598Z,49.15
2023-02-03T20:15:01.706Z,48.53
2023-02-03T20:17:29.036Z,46.75
2023-02-03T20:19:56.193Z,47.80
2023-02-03T20:22:23.338Z,45.78
2023-02-03T20:24:50.794Z,35.53
2023-02-03T20:29:45.042Z,39.25
2023-02-03T20:32:12.005Z,35.13
2023-02-03T20:34:39.752Z,32.67
2023-02-03T20:39:35.370Z,28.50
2023-02-03T20:49:23.376Z,32.70
2023-02-03T20:54:21.070Z,31.95
2023-02-03T20:56:48.676Z,32.78
2023-02-03T20:59:19.542Z,31.65
2023-02-03T21:01:47.308Z,31.10
2023-02-03T21:04:34.363Z,32.47
2023-02-03T21:07:23.847Z,33.08
2023-02-03T21:09:50.872Z,31.55
2023-02-03T21:12:17.745Z,31.48
2023-02-03T21:14:49.499Z,31.15
2023-02-03T21:17:18.084Z,31.20
2023-02-03T21:19:45.321Z,32.75
2023-02-03T21:22:32.830Z,29.13
2023-02-03T21:35:01.942Z,29.23
2023-02-03T21:37:41.406Z,26.33
2023-02-03T21:40:26.296Z,27.60
2023-02-03T21:42:54.336Z,27.10
2023-02-03T21:45:26.131Z,28.20
2023-02-03T21:47:53.489Z,31.15
2023-02-03T21:50:32.321Z,31.92
2023-02-03T21:53:05.604Z,29.65
2023-02-03T21:55:32.601Z,30.27
2023-02-03T21:58:01.111Z,30.08
2023-02-03T22:00:48.180Z,31.27
2023-02-03T22:03:23.027Z,30.50
2023-02-03T22:05:50.242Z,29.00
2023-02-03T22:08:22.077Z,30.65
2023-02-03T22:10:49.620Z,32.33
2023-02-03T22:13:16.772Z,35.03
2023-02-03T22:15:44.035Z,32.95
2023-02-03T22:18:11.064Z,30.02
2023-02-03T22:20:38.029Z,31.02
2023-02-03T22:23:06.062Z,30.70
2023-02-03T22:25:32.999Z,28.17
2023-02-03T22:28:00.002Z,30.17
2023-02-03T22:30:27.019Z,28.13
2023-02-03T22:32:54.066Z,25.23
2023-02-03T22:35:21.183Z,22.75
2023-02-03T22:37:50.258Z,22.92
2023-02-03T22:40:17.711Z,24.52
2023-02-03T22:42:45.041Z,23.77
2023-02-03T22:45:12.780Z,24.83
2023-02-03T22:47:40.910Z,25.38
2023-02-03T22:50:10.583Z,27.55
2023-02-03T22:52:37.659Z,29.40
2023-02-03T22:55:05.910Z,26.70
2023-02-03T22:57:32.835Z,29.55
2023-02-03T22:59:59.723Z,31.00
2023-02-03T23:02:27.279Z,27.95
2023-02-03T23:04:54.731Z,28.25
2023-02-03T23:07:21.714Z,28.83
2023-02-03T23:14:42.249Z,26.20
2023-02-03T23:17:09.185Z,25.35
2023-02-03T23:19:36.070Z,25.85
2023-02-03T23:22:03.105Z,25.60
2023-02-03T23:24:30.051Z,25.40
2023-02-03T23:26:57.039Z,25.23
2023-02-03T23:29:23.935Z,25.20
2023-02-03T23:31:50.959Z,23.08
2023-02-03T23:34:36.364Z,23.50
2023-02-03T23:37:03.495Z,27.13
2023-02-03T23:39:30.528Z,25.02
2023-02-03T23:44:24.866Z,24.90
2023-02-03T23:46:51.868Z,23.23
2023-02-03T23:49:18.753Z,22.33
2023-02-03T23:51:45.683Z,24.63
2023-02-03T23:54:12.599Z,23.40
2023-02-03T23:56:39.531Z,23.42
2023-02-03T23:59:06.494Z,22.40
